createdAt,value
2022-10-28T00:02:12.448Z,29.74
2022-10-28T00:05:02.281Z,29.74
2022-10-28T00:07:51.595Z,29.79
2022-10-28T00:10:40.736Z,29.72
2022-10-28T00:13:31.649Z,29.76
2022-10-28T00:16:23.629Z,29.72
2022-10-28T00:19:15.550Z,29.78
2022-10-28T00:22:04.320Z,29.78
2022-10-28T00:24:53.585Z,29.81
2022-10-28T00:27:45.069Z,29.83
2022-10-28T00:30:34.011Z,29.85
2022-10-28T00:33:23.335Z,29.90
2022-10-28T00:36:21.212Z,29.96
2022-10-28T00:39:16.471Z,29.98
2022-10-28T00:42:08.270Z,29.98
2022-10-28T00:45:06.749Z,30.05
2022-10-28T00:47:56.624Z,30.08
2022-10-28T00:50:53.986Z,30.10
2022-10-28T00:53:45.100Z,30.09
2022-10-28T00:56:38.317Z,30.16
2022-10-28T00:59:29.699Z,30.17
2022-10-28T01:02:19.756Z,30.23
2022-10-28T01:05:09.586Z,30.27
2022-10-28T01:08:03.630Z,30.26
2022-10-28T01:11:14.004Z,30.33
2022-10-28T01:14:19.212Z,30.33
2022-10-28T01:17:30.304Z,30.38
2022-10-28T01:20:34.937Z,30.40
2022-10-28T01:23:44.787Z,30.39
2022-10-28T01:26:33.667Z,30.37
2022-10-28T01:29:31.654Z,30.38
2022-10-28T01:32:52.301Z,30.39
2022-10-28T01:35:56.711Z,30.42
2022-10-28T01:39:07.949Z,30.41
2022-10-28T01:42:28.588Z,30.43
2022-10-28T01:45:28.835Z,30.43
2022-10-28T01:48:23.691Z,30.43
2022-10-28T01:51:22.964Z,30.46
2022-10-28T01:54:14.137Z,30.43
2022-10-28T01:57:06.146Z,30.46
2022-10-28T01:59:55.315Z,30.49
2022-10-28T02:02:46.361Z,30.54
2022-10-28T02:05:41.131Z,30.62
2022-10-28T02:09:05.427Z,30.64
2022-10-28T02:12:18.062Z,30.71
2022-10-28T02:15:39.159Z,30.72
2022-10-28T02:18:41.730Z,30.76
2022-10-28T02:22:11.878Z,30.73
2022-10-28T02:25:22.793Z,30.75
2022-10-28T02:28:17.230Z,30.78
2022-10-28T02:31:17.626Z,30.77
2022-10-28T02:34:11.823Z,30.77
2022-10-28T02:37:03.175Z,30.69
2022-10-28T02:39:56.341Z,30.77
2022-10-28T02:42:52.926Z,30.74
2022-10-28T02:45:48.752Z,30.71
2022-10-28T02:48:49.830Z,30.68
2022-10-28T02:51:44.704Z,30.65
2022-10-28T02:54:38.291Z,30.57
2022-10-28T02:57:31.370Z,30.52
2022-10-28T03:00:26.314Z,30.50
2022-10-28T03:03:15.896Z,30.45
2022-10-28T03:06:05.808Z,30.42
2022-10-28T03:08:54.971Z,30.43
2022-10-28T03:11:43.872Z,30.43
2022-10-28T03:14:33.239Z,30.38
2022-10-28T03:17:22.860Z,30.35
2022-10-28T03:20:12.684Z,30.31
2022-10-28T03:23:02.516Z,30.27
2022-10-28T03:25:53.641Z,30.25
2022-10-28T03:28:45.760Z,30.23
2022-10-28T03:31:34.762Z,30.22
2022-10-28T03:34:24.384Z,30.15
2022-10-28T03:37:13.683Z,30.18
2022-10-28T03:40:05.816Z,30.11
2022-10-28T03:42:55.018Z,30.10
2022-10-28T03:45:45.089Z,30.08
2022-10-28T03:48:36.527Z,30.07
2022-10-28T03:51:25.478Z,30.07
2022-10-28T03:54:15.525Z,30.04
2022-10-28T03:57:04.810Z,30.02
2022-10-28T03:59:57.948Z,30.01
2022-10-28T04:02:54.736Z,30.05
2022-10-28T04:05:45.006Z,30.01
2022-10-28T04:08:34.647Z,30.05
2022-10-28T04:11:24.261Z,30.07
2022-10-28T04:14:13.789Z,30.06
2022-10-28T04:17:03.516Z,30.06
2022-10-28T04:19:52.744Z,30.11
2022-10-28T04:22:41.875Z,30.12
2022-10-28T04:25:30.904Z,30.11
2022-10-28T04:28:20.293Z,30.15
2022-10-28T04:31:10.998Z,30.14
2022-10-28T04:34:00.118Z,30.15
2022-10-28T04:36:48.977Z,30.14
2022-10-28T04:39:41.361Z,30.14
2022-10-28T04:42:30.575Z,30.20
2022-10-28T04:45:19.696Z,30.23
2022-10-28T04:48:12.808Z,30.26
2022-10-28T04:51:02.083Z,30.28
2022-10-28T04:53:50.684Z,30.37
2022-10-28T04:56:39.681Z,30.37
2022-10-28T04:59:31.345Z,30.44
2022-10-28T05:02:20.429Z,30.53
2022-10-28T05:05:10.087Z,30.61
2022-10-28T05:07:59.175Z,30.63
2022-10-28T05:10:51.136Z,30.65
2022-10-28T05:13:40.214Z,30.67
2022-10-28T05:16:29.242Z,30.69
2022-10-28T05:19:18.336Z,30.69
2022-10-28T05:22:07.720Z,30.72
2022-10-28T05:24:57.199Z,30.75
2022-10-28T05:27:49.406Z,30.75
2022-10-28T05:30:38.960Z,30.79
2022-10-28T05:33:30.458Z,30.84
2022-10-28T05:36:37.633Z,30.89
2022-10-28T05:39:26.781Z,30.96
2022-10-28T05:42:15.909Z,31.03
2022-10-28T05:45:04.928Z,31.04
2022-10-28T05:47:55.868Z,31.05
2022-10-28T05:50:45.271Z,31.05
2022-10-28T05:53:33.755Z,31.03
2022-10-28T05:56:23.346Z,30.97
2022-10-28T05:59:13.095Z,30.97
2022-10-28T06:02:02.260Z,30.93
2022-10-28T06:04:51.349Z,30.93
2022-10-28T06:07:42.242Z,30.87
2022-10-28T06:10:36.824Z,30.82
2022-10-28T06:13:24.542Z,30.78
2022-10-28T06:16:13.363Z,30.73
2022-10-28T06:19:02.883Z,30.68
2022-10-28T06:21:58.112Z,30.62
2022-10-28T06:24:47.220Z,30.57
2022-10-28T06:27:36.591Z,30.56
2022-10-28T06:30:27.057Z,30.55
2022-10-28T06:33:15.954Z,30.50
2022-10-28T06:36:08.355Z,30.45
2022-10-28T06:38:57.392Z,30.44
2022-10-28T06:41:50.073Z,30.49
2022-10-28T06:44:45.380Z,30.48
2022-10-28T06:47:40.593Z,30.48
2022-10-28T06:50:31.507Z,30.45
2022-10-28T06:53:22.349Z,30.42
2022-10-28T06:56:12.503Z,30.35
2022-10-28T06:59:01.963Z,30.28
2022-10-28T07:01:51.542Z,30.27
2022-10-28T07:04:43.691Z,30.22
2022-10-28T07:07:43.700Z,30.17
2022-10-28T07:10:33.875Z,30.16
2022-10-28T07:13:23.033Z,30.14
2022-10-28T07:16:12.098Z,30.14
2022-10-28T07:19:00.979Z,30.10
2022-10-28T07:21:51.890Z,30.08
2022-10-28T07:24:43.622Z,30.07
2022-10-28T07:27:33.241Z,30.07
2022-10-28T07:30:22.711Z,30.02
2022-10-28T07:33:12.017Z,29.98
2022-10-28T07:36:02.478Z,29.96
2022-10-28T07:38:54.615Z,29.97
2022-10-28T07:41:43.465Z,29.95
2022-10-28T07:44:32.367Z,29.94
2022-10-28T07:47:25.731Z,29.90
2022-10-28T07:50:15.106Z,29.88
2022-10-28T07:53:10.624Z,29.85
2022-10-28T07:56:04.481Z,29.82
2022-10-28T07:58:53.722Z,29.80
2022-10-28T08:01:43.193Z,29.84
2022-10-28T08:04:33.317Z,29.83
2022-10-28T08:07:24.781Z,29.80
2022-10-28T08:10:15.441Z,29.78
2022-10-28T08:13:05.246Z,29.79
2022-10-28T08:15:55.564Z,29.75
2022-10-28T08:18:44.912Z,29.76
2022-10-28T08:21:34.131Z,29.72
2022-10-28T08:24:23.421Z,29.65
2022-10-28T08:27:12.311Z,29.61
2022-10-28T08:30:01.291Z,29.60
2022-10-28T08:32:58.856Z,29.54
2022-10-28T08:35:53.740Z,29.47
2022-10-28T08:38:46.056Z,29.49
2022-10-28T08:41:47.160Z,29.44
2022-10-28T08:44:42.148Z,29.47
2022-10-28T08:47:54.823Z,29.47
2022-10-28T08:50:52.832Z,29.37
2022-10-28T08:53:59.815Z,29.39
2022-10-28T08:56:49.436Z,29.37
2022-10-28T08:59:40.682Z,29.31
2022-10-28T09:02:35.298Z,29.31
2022-10-28T09:05:27.391Z,29.30
2022-10-28T09:08:24.875Z,29.23
2022-10-28T09:11:37.107Z,29.26
2022-10-28T09:14:31.979Z,29.27
2022-10-28T09:17:26.841Z,29.28
2022-10-28T09:20:46.473Z,29.29
2022-10-28T09:23:51.274Z,29.25
2022-10-28T09:26:54.490Z,29.22
2022-10-28T09:30:06.678Z,29.22
2022-10-28T09:33:07.678Z,29.18
2022-10-28T09:35:58.443Z,29.19
2022-10-28T09:38:48.102Z,29.22
2022-10-28T09:41:40.109Z,29.17
2022-10-28T09:44:35.392Z,29.16
2022-10-28T09:47:39.400Z,29.19
2022-10-28T09:50:31.371Z,29.18
2022-10-28T09:53:59.352Z,29.14
2022-10-28T09:56:48.626Z,29.16
2022-10-28T09:59:38.598Z,29.18
2022-10-28T10:02:33.978Z,29.16
2022-10-28T10:05:24.419Z,29.18
2022-10-28T10:08:21.010Z,29.16
2022-10-28T10:11:46.838Z,29.14
2022-10-28T10:14:57.487Z,29.15
2022-10-28T10:17:49.300Z,29.13
2022-10-28T10:21:06.543Z,29.16
2022-10-28T10:23:57.110Z,29.12
2022-10-28T10:26:46.460Z,29.13
2022-10-28T10:29:37.421Z,29.12
2022-10-28T10:32:32.013Z,29.15
2022-10-28T10:35:36.489Z,29.12
2022-10-28T10:38:25.550Z,29.14
2022-10-28T10:41:35.341Z,29.15
2022-10-28T10:44:27.277Z,29.14
2022-10-28T10:47:20.917Z,29.07
2022-10-28T10:50:35.853Z,29.12
2022-10-28T10:53:26.722Z,29.12
2022-10-28T10:56:28.253Z,29.13
2022-10-28T10:59:27.246Z,29.11
2022-10-28T11:02:42.798Z,29.06
2022-10-28T11:05:37.945Z,29.15
2022-10-28T11:08:35.289Z,29.09
2022-10-28T11:11:25.591Z,29.11
2022-10-28T11:14:14.503Z,29.09
2022-10-28T11:17:25.810Z,29.12
2022-10-28T11:20:28.203Z,29.02
2022-10-28T11:23:36.139Z,29.06
2022-10-28T11:26:26.881Z,29.07
2022-10-28T11:29:19.401Z,29.03
2022-10-28T11:32:48.876Z,28.99
2022-10-28T11:36:17.312Z,29.04
2022-10-28T11:39:40.660Z,29.02
2022-10-28T11:43:08.247Z,29.05
2022-10-28T11:46:12.372Z,28.99
2022-10-28T11:49:22.421Z,29.01
2022-10-28T11:52:20.629Z,29.01
2022-10-28T11:55:24.905Z,29.01
2022-10-28T11:58:41.931Z,29.01
2022-10-28T12:01:52.737Z,29.00
2022-10-28T12:05:10.692Z,28.91
2022-10-28T12:08:15.095Z,28.98
2022-10-28T12:11:25.798Z,29.00
2022-10-28T12:14:39.788Z,29.06
2022-10-28T12:18:16.578Z,29.06
2022-10-28T12:21:26.119Z,29.03
2022-10-28T12:24:20.044Z,28.97
2022-10-28T12:27:29.531Z,29.01
2022-10-28T12:30:51.558Z,29.00
2022-10-28T12:33:50.775Z,28.97
2022-10-28T12:36:56.358Z,28.90
2022-10-28T12:40:14.570Z,28.94
2022-10-28T12:43:25.140Z,28.89
2022-10-28T12:46:50.366Z,28.95
2022-10-28T12:49:55.257Z,28.89
2022-10-28T12:53:07.295Z,28.93
2022-10-28T12:56:04.755Z,28.86
2022-10-28T12:58:53.864Z,28.91
2022-10-28T13:01:46.494Z,28.91
2022-10-28T13:04:38.541Z,28.85
2022-10-28T13:08:01.831Z,28.84
2022-10-28T13:10:59.114Z,28.83
2022-10-28T13:14:02.523Z,28.81
2022-10-28T13:17:18.876Z,28.82
2022-10-28T13:20:25.855Z,28.80
2022-10-28T13:23:41.592Z,28.82
2022-10-28T13:26:36.575Z,28.74
2022-10-28T13:29:31.724Z,28.77
2022-10-28T13:32:35.599Z,28.71
2022-10-28T13:35:29.347Z,28.71
2022-10-28T13:38:23.036Z,28.67
2022-10-28T13:41:27.383Z,28.68
2022-10-28T13:44:28.654Z,28.67
2022-10-28T13:47:36.240Z,28.63
2022-10-28T13:50:34.728Z,28.65
2022-10-28T13:53:26.600Z,28.64
2022-10-28T13:56:46.840Z,28.64
2022-10-28T13:59:54.300Z,28.55
2022-10-28T14:03:04.680Z,28.52
2022-10-28T14:05:57.785Z,28.49
2022-10-28T14:08:47.224Z,28.49
2022-10-28T14:11:36.348Z,28.42
2022-10-28T14:14:25.704Z,28.37
2022-10-28T14:17:29.049Z,28.41
2022-10-28T14:20:41.777Z,28.37
2022-10-28T14:23:30.494Z,28.29
2022-10-28T14:26:19.505Z,28.31
2022-10-28T14:29:29.621Z,28.30
2022-10-28T14:32:33.665Z,28.30
2022-10-28T14:35:32.313Z,28.24
2022-10-28T14:39:05.901Z,28.27
2022-10-28T14:42:02.059Z,28.23
2022-10-28T14:44:59.443Z,28.17
2022-10-28T14:48:03.861Z,28.18
2022-10-28T14:50:56.824Z,28.19
2022-10-28T14:53:47.070Z,28.12
2022-10-28T14:56:42.895Z,28.13
2022-10-28T14:59:38.344Z,28.12
2022-10-28T15:02:31.871Z,28.11
2022-10-28T15:05:24.314Z,28.11
2022-10-28T15:08:13.702Z,28.17
2022-10-28T15:11:05.999Z,28.17
2022-10-28T15:14:01.632Z,28.18
2022-10-28T15:16:51.141Z,28.09
2022-10-28T15:19:40.444Z,28.06
2022-10-28T15:22:35.064Z,28.07
2022-10-28T15:25:25.076Z,28.07
2022-10-28T15:28:14.982Z,28.08
2022-10-28T15:31:04.232Z,28.09
2022-10-28T15:33:53.624Z,28.02
2022-10-28T15:36:50.164Z,28.07
2022-10-28T15:39:40.873Z,28.08
2022-10-28T15:42:41.884Z,28.10
2022-10-28T15:45:34.420Z,28.15
2022-10-28T15:48:28.686Z,28.18
2022-10-28T15:51:21.426Z,28.20
2022-10-28T15:54:20.403Z,28.23
2022-10-28T15:57:30.740Z,28.31
2022-10-28T16:00:24.570Z,28.27
2022-10-28T16:03:26.407Z,28.32
2022-10-28T16:06:31.843Z,28.29
2022-10-28T16:09:35.271Z,28.25
2022-10-28T16:12:25.734Z,28.27
2022-10-28T16:15:16.279Z,28.29
2022-10-28T16:18:05.292Z,28.31
2022-10-28T16:20:56.027Z,28.20
2022-10-28T16:23:45.352Z,28.15
2022-10-28T16:26:34.442Z,28.15
2022-10-28T16:29:23.247Z,28.23
2022-10-28T16:32:13.905Z,28.25
2022-10-28T16:35:02.677Z,28.24
2022-10-28T16:37:55.370Z,28.25
2022-10-28T16:40:51.418Z,28.21
2022-10-28T16:43:41.126Z,28.21
2022-10-28T16:46:31.966Z,28.20
2022-10-28T16:49:23.705Z,28.22
2022-10-28T16:52:20.971Z,28.19
2022-10-28T16:55:18.198Z,28.17
2022-10-28T16:58:07.739Z,28.14
2022-10-28T17:00:57.505Z,28.19
2022-10-28T17:03:46.901Z,28.17
2022-10-28T17:06:35.698Z,28.15
2022-10-28T17:09:25.403Z,28.22
2022-10-28T17:12:28.100Z,28.26
2022-10-28T17:15:17.319Z,28.28
2022-10-28T17:18:06.308Z,28.26
2022-10-28T17:21:02.937Z,28.17
2022-10-28T17:23:52.639Z,28.06
2022-10-28T17:26:41.596Z,27.94
2022-10-28T17:29:31.002Z,27.95
2022-10-28T17:32:19.803Z,27.78
2022-10-28T17:35:09.273Z,27.82
2022-10-28T17:37:58.524Z,27.82
2022-10-28T17:40:56.815Z,27.76
2022-10-28T17:43:45.973Z,27.75
2022-10-28T17:46:35.107Z,27.70
2022-10-28T17:49:24.396Z,27.70
2022-10-28T17:52:14.121Z,27.66
2022-10-28T17:55:04.066Z,27.67
2022-10-28T17:57:53.499Z,27.66
2022-10-28T18:00:43.014Z,27.68
2022-10-28T18:03:35.618Z,27.64
2022-10-28T18:06:29.549Z,27.65
2022-10-28T18:09:18.277Z,27.62
2022-10-28T18:12:07.635Z,27.58
2022-10-28T18:14:58.663Z,27.49
2022-10-28T18:17:52.129Z,27.53
2022-10-28T18:20:41.271Z,27.43
2022-10-28T18:23:31.789Z,27.43
2022-10-28T18:26:23.725Z,27.48
2022-10-28T18:29:14.136Z,27.48
2022-10-28T18:32:05.529Z,27.47
2022-10-28T18:34:54.870Z,27.43
2022-10-28T18:37:44.637Z,27.52
2022-10-28T18:40:33.866Z,27.36
2022-10-28T18:43:24.063Z,27.30
2022-10-28T18:46:14.304Z,27.33
2022-10-28T18:49:03.749Z,27.38
2022-10-28T18:52:11.970Z,27.33
2022-10-28T18:55:02.035Z,27.33
2022-10-28T18:57:52.131Z,27.30
2022-10-28T19:00:41.333Z,27.36
2022-10-28T19:03:30.171Z,27.39
2022-10-28T19:06:22.470Z,27.38
2022-10-28T19:09:11.637Z,27.42
2022-10-28T19:12:00.898Z,27.42
2022-10-28T19:14:50.215Z,27.47
2022-10-28T19:17:42.525Z,27.27
2022-10-28T19:20:32.095Z,27.35
2022-10-28T19:23:21.397Z,27.35
2022-10-28T19:26:10.885Z,27.38
2022-10-28T19:29:00.219Z,27.38
2022-10-28T19:31:49.042Z,27.34
2022-10-28T19:34:41.028Z,27.35
2022-10-28T19:37:30.877Z,27.30
2022-10-28T19:40:20.464Z,27.27
2022-10-28T19:43:10.160Z,27.32
2022-10-28T19:46:15.319Z,27.33
2022-10-28T19:49:07.541Z,27.19
2022-10-28T19:51:56.900Z,27.24
2022-10-28T19:54:48.707Z,27.23
2022-10-28T19:57:41.356Z,27.23
2022-10-28T20:00:30.365Z,27.14
2022-10-28T20:03:21.649Z,27.14
2022-10-28T20:06:13.011Z,27.17
2022-10-28T20:09:04.426Z,27.15
2022-10-28T20:11:53.519Z,27.20
2022-10-28T20:14:43.915Z,27.07
2022-10-28T20:17:33.262Z,27.15
2022-10-28T20:20:22.424Z,27.08
2022-10-28T20:23:11.911Z,27.17
2022-10-28T20:26:01.448Z,27.11
2022-10-28T20:28:51.212Z,27.10
2022-10-28T20:31:44.328Z,27.12
2022-10-28T20:34:36.049Z,27.17
2022-10-28T20:37:24.919Z,27.13
2022-10-28T20:40:13.970Z,27.06
2022-10-28T20:43:03.166Z,27.14
2022-10-28T20:46:18.929Z,27.17
2022-10-28T20:49:14.817Z,27.06
2022-10-28T20:52:07.089Z,27.07
2022-10-28T20:54:55.774Z,27.06
2022-10-28T20:57:45.369Z,27.07
2022-10-28T21:00:34.207Z,27.11
2022-10-28T21:03:23.785Z,27.08
2022-10-28T21:09:07.983Z,27.00
2022-10-28T21:11:57.241Z,27.06
2022-10-28T21:14:47.175Z,27.11
2022-10-28T21:17:36.278Z,26.96
2022-10-28T21:20:25.290Z,27.04
2022-10-28T21:23:17.405Z,26.98
2022-10-28T21:26:09.796Z,27.03
2022-10-28T21:28:58.559Z,26.98
2022-10-28T21:31:48.247Z,26.99
2022-10-28T21:34:37.435Z,26.87
2022-10-28T21:37:26.454Z,26.89
2022-10-28T21:40:16.350Z,26.93
2022-10-28T21:43:05.584Z,26.92
2022-10-28T21:45:54.609Z,26.84
2022-10-28T21:48:45.242Z,26.81
2022-10-28T21:51:35.078Z,26.83
2022-10-28T21:54:24.546Z,26.87
2022-10-28T21:57:14.538Z,26.85
2022-10-28T22:00:06.887Z,26.84
2022-10-28T22:03:21.017Z,26.90
2022-10-28T22:06:11.736Z,26.89
2022-10-28T22:09:02.268Z,26.74
2022-10-28T22:11:51.299Z,26.77
2022-10-28T22:14:44.543Z,26.75
2022-10-28T22:17:34.981Z,26.68
2022-10-28T22:23:14.895Z,26.80
2022-10-28T22:26:07.431Z,26.79
2022-10-28T22:28:57.682Z,26.77
2022-10-28T22:31:48.143Z,26.75
2022-10-28T22:34:40.191Z,26.68
2022-10-28T22:37:29.378Z,26.76
2022-10-28T22:40:18.616Z,26.77
2022-10-28T22:43:07.283Z,26.76
2022-10-28T22:46:01.563Z,26.62
2022-10-28T22:48:51.064Z,26.80
2022-10-28T22:51:40.901Z,26.78
2022-10-28T22:54:30.323Z,26.76
2022-10-28T22:57:19.498Z,26.73
2022-10-28T23:00:09.438Z,26.71
2022-10-28T23:02:59.593Z,26.70
2022-10-28T23:05:50.661Z,26.61
2022-10-28T23:08:41.531Z,26.58
2022-10-28T23:11:31.087Z,26.57
2022-10-28T23:14:23.978Z,26.64
2022-10-28T23:17:12.946Z,26.59
2022-10-28T23:20:02.187Z,26.65
2022-10-28T23:22:51.605Z,26.65
2022-10-28T23:25:41.054Z,26.66
2022-10-28T23:28:30.740Z,26.52
2022-10-28T23:31:20.621Z,26.56
2022-10-28T23:34:10.123Z,26.64
2022-10-28T23:36:59.019Z,26.69
2022-10-28T23:39:53.104Z,26.58
2022-10-28T23:42:41.936Z,26.60
2022-10-28T23:45:30.704Z,26.66
2022-10-28T23:48:20.393Z,26.61
2022-10-28T23:51:11.066Z,26.65
2022-10-28T23:54:00.902Z,26.70
2022-10-28T23:56:50.244Z,26.76
2022-10-28T23:59:39.315Z,26.66
